sensor_id;sensor_type;location;lat;lon;timestamp;temperature;humidity
66144;SHT31;52947;50.842;6.084;2024-01-15T00:01:22;0.18;96.02
66144;SHT31;52947;50.842;6.084;2024-01-15T00:03:50;0.21;95.89
66144;SHT31;52947;50.842;6.084;2024-01-15T00:06:18;0.21;95.91
66144;SHT31;52947;50.842;6.084;2024-01-15T00:08:48;0.25;96.24
66144;SHT31;52947;50.842;6.084;2024-01-15T00:11:16;0.24;96.40
66144;SHT31;52947;50.842;6.084;2024-01-15T00:13:44;0.25;96.33
66144;SHT31;52947;50.842;6.084;2024-01-15T00:16:12;0.28;96.11
66144;SHT31;52947;50.842;6.084;2024-01-15T00:18:40;0.28;96.02
66144;SHT31;52947;50.842;6.084;2024-01-15T00:21:27;0.32;95.80
66144;SHT31;52947;50.842;6.084;2024-01-15T00:23:56;0.31;95.99
66144;SHT31;52947;50.842;6.084;2024-01-15T00:26:24;0.31;95.80
66144;SHT31;52947;50.842;6.084;2024-01-15T00:28:52;0.28;95.93
66144;SHT31;52947;50.842;6.084;2024-01-15T00:31:20;0.29;95.90
66144;SHT31;52947;50.842;6.084;2024-01-15T00:33:49;0.34;96.02
66144;SHT31;52947;50.842;6.084;2024-01-15T00:36:17;0.32;95.95
66144;SHT31;52947;50.842;6.084;2024-01-15T00:38:45;0.28;95.90
66144;SHT31;52947;50.842;6.084;2024-01-15T00:41:15;0.28;96.03
66144;SHT31;52947;50.842;6.084;2024-01-15T00:43:44;0.29;95.94
66144;SHT31;52947;50.842;6.084;2024-01-15T00:46:12;0.32;95.98
66144;SHT31;52947;50.842;6.084;2024-01-15T00:48:40;0.35;95.87
66144;SHT31;52947;50.842;6.084;2024-01-15T00:51:08;0.34;95.90
66144;SHT31;52947;50.842;6.084;2024-01-15T00:53:36;0.38;95.87
66144;SHT31;52947;50.842;6.084;2024-01-15T00:56:04;0.37;96.10
66144;SHT31;52947;50.842;6.084;2024-01-15T00:58:34;0.29;96.31
66144;SHT31;52947;50.842;6.084;2024-01-15T01:01:02;0.31;96.72
66144;SHT31;52947;50.842;6.084;2024-01-15T01:03:30;0.31;96.53
66144;SHT31;52947;50.842;6.084;2024-01-15T01:05:58;0.32;96.60
66144;SHT31;52947;50.842;6.084;2024-01-15T01:08:26;0.24;97.00
66144;SHT31;52947;50.842;6.084;2024-01-15T01:10:55;0.21;97.21
66144;SHT31;52947;50.842;6.084;2024-01-15T01:13:23;0.25;97.09
66144;SHT31;52947;50.842;6.084;2024-01-15T01:15:53;0.29;97.22
66144;SHT31;52947;50.842;6.084;2024-01-15T01:18:21;0.31;97.01
66144;SHT31;52947;50.842;6.084;2024-01-15T01:20:49;0.34;97.00
66144;SHT31;52947;50.842;6.084;2024-01-15T01:23:18;0.32;96.82
66144;SHT31;52947;50.842;6.084;2024-01-15T01:25:46;0.31;97.16
66144;SHT31;52947;50.842;6.084;2024-01-15T01:28:14;0.34;97.24
66144;SHT31;52947;50.842;6.084;2024-01-15T01:30:42;0.31;97.47
66144;SHT31;52947;50.842;6.084;2024-01-15T01:33:12;0.28;97.47
66144;SHT31;52947;50.842;6.084;2024-01-15T01:35:40;0.32;97.47
66144;SHT31;52947;50.842;6.084;2024-01-15T01:38:08;0.31;97.36
66144;SHT31;52947;50.842;6.084;2024-01-15T01:40:36;0.29;97.67
66144;SHT31;52947;50.842;6.084;2024-01-15T01:43:04;0.25;97.56
66144;SHT31;52947;50.842;6.084;2024-01-15T01:45:33;0.32;97.69
66144;SHT31;52947;50.842;6.084;2024-01-15T01:48:01;0.32;97.57
66144;SHT31;52947;50.842;6.084;2024-01-15T01:50:31;0.27;97.65
66144;SHT31;52947;50.842;6.084;2024-01-15T01:52:59;1.92;99.99
66144;SHT31;52947;50.842;6.084;2024-01-15T01:55:29;2.87;98.58
66144;SHT31;52947;50.842;6.084;2024-01-15T01:58:00;2.49;94.55
66144;SHT31;52947;50.842;6.084;2024-01-15T02:00:29;3.22;96.40
66144;SHT31;52947;50.842;6.084;2024-01-15T02:02:58;3.70;95.20
66144;SHT31;52947;50.842;6.084;2024-01-15T02:05:26;2.52;93.53
66144;SHT31;52947;50.842;6.084;2024-01-15T02:07:56;3.82;95.80
66144;SHT31;52947;50.842;6.084;2024-01-15T02:10:24;4.42;94.33
66144;SHT31;52947;50.842;6.084;2024-01-15T02:12:52;3.56;91.61
66144;SHT31;52947;50.842;6.084;2024-01-15T02:15:20;4.13;94.96
66144;SHT31;52947;50.842;6.084;2024-01-15T02:17:59;4.48;92.39
66144;SHT31;52947;50.842;6.084;2024-01-15T02:20:27;4.64;91.04
66144;SHT31;52947;50.842;6.084;2024-01-15T02:23:07;4.86;91.12
66144;SHT31;52947;50.842;6.084;2024-01-15T02:25:36;4.16;88.87
66144;SHT31;52947;50.842;6.084;2024-01-15T02:28:06;4.64;88.44
66144;SHT31;52947;50.842;6.084;2024-01-15T02:30:37;4.57;90.35
66144;SHT31;52947;50.842;6.084;2024-01-15T02:33:06;4.30;90.36
66144;SHT31;52947;50.842;6.084;2024-01-15T02:35:34;4.42;90.64
66144;SHT31;52947;50.842;6.084;2024-01-15T02:38:05;4.06;89.16
66144;SHT31;52947;50.842;6.084;2024-01-15T02:40:34;4.17;92.49
66144;SHT31;52947;50.842;6.084;2024-01-15T02:43:02;4.37;90.82
66144;SHT31;52947;50.842;6.084;2024-01-15T02:45:30;5.19;90.50
66144;SHT31;52947;50.842;6.084;2024-01-15T02:47:58;3.94;88.63
66144;SHT31;52947;50.842;6.084;2024-01-15T02:50:27;3.70;90.43
66144;SHT31;52947;50.842;6.084;2024-01-15T02:52:54;4.28;91.55
66144;SHT31;52947;50.842;6.084;2024-01-15T02:55:24;4.61;89.81
66144;SHT31;52947;50.842;6.084;2024-01-15T02:57:52;4.27;89.38
66144;SHT31;52947;50.842;6.084;2024-01-15T03:00:20;4.20;90.29
66144;SHT31;52947;50.842;6.084;2024-01-15T03:02:48;4.27;90.11
66144;SHT31;52947;50.842;6.084;2024-01-15T03:05:18;4.18;90.25
66144;SHT31;52947;50.842;6.084;2024-01-15T03:07:46;4.65;90.82
66144;SHT31;52947;50.842;6.084;2024-01-15T03:10:15;3.56;89.28
66144;SHT31;52947;50.842;6.084;2024-01-15T03:12:44;2.94;92.47
66144;SHT31;52947;50.842;6.084;2024-01-15T03:15:12;3.52;94.06
66144;SHT31;52947;50.842;6.084;2024-01-15T03:17:41;3.40;91.91
66144;SHT31;52947;50.842;6.084;2024-01-15T03:20:10;3.21;91.74
66144;SHT31;52947;50.842;6.084;2024-01-15T03:22:39;2.79;92.46
66144;SHT31;52947;50.842;6.084;2024-01-15T03:25:07;2.76;95.63
66144;SHT31;52947;50.842;6.084;2024-01-15T03:27:35;2.76;93.84
66144;SHT31;52947;50.842;6.084;2024-01-15T03:30:06;2.79;92.84
66144;SHT31;52947;50.842;6.084;2024-01-15T03:32:34;3.39;94.68
66144;SHT31;52947;50.842;6.084;2024-01-15T03:35:03;3.12;92.54
66144;SHT31;52947;50.842;6.084;2024-01-15T03:37:31;3.86;91.95
66144;SHT31;52947;50.842;6.084;2024-01-15T03:39:59;3.48;92.32
66144;SHT31;52947;50.842;6.084;2024-01-15T03:42:27;2.85;91.63
66144;SHT31;52947;50.842;6.084;2024-01-15T03:44:55;2.93;94.06
66144;SHT31;52947;50.842;6.084;2024-01-15T03:47:25;2.88;93.66
66144;SHT31;52947;50.842;6.084;2024-01-15T03:49:54;2.88;93.87
66144;SHT31;52947;50.842;6.084;2024-01-15T03:52:22;3.48;94.06
66144;SHT31;52947;50.842;6.084;2024-01-15T03:54:50;3.60;91.99
66144;SHT31;52947;50.842;6.084;2024-01-15T03:57:18;2.81;93.61
66144;SHT31;52947;50.842;6.084;2024-01-15T03:59:46;3.65;92.27
66144;SHT31;52947;50.842;6.084;2024-01-15T04:02:14;4.18;91.34
66144;SHT31;52947;50.842;6.084;2024-01-15T04:04:44;3.51;89.47
66144;SHT31;52947;50.842;6.084;2024-01-15T04:07:12;3.55;91.97
66144;SHT31;52947;50.842;6.084;2024-01-15T04:09:40;3.56;91.87
66144;SHT31;52947;50.842;6.084;2024-01-15T04:12:08;3.85;91.01
66144;SHT31;52947;50.842;6.084;2024-01-15T04:14:37;4.04;91.06
66144;SHT31;52947;50.842;6.084;2024-01-15T04:17:05;4.28;90.81
66144;SHT31;52947;50.842;6.084;2024-01-15T04:19:33;4.20;90.41
66144;SHT31;52947;50.842;6.084;2024-01-15T04:22:02;4.16;92.22
66144;SHT31;52947;50.842;6.084;2024-01-15T04:24:31;4.06;89.42
66144;SHT31;52947;50.842;6.084;2024-01-15T04:27:17;3.38;91.81
66144;SHT31;52947;50.842;6.084;2024-01-15T04:29:45;3.14;93.19
66144;SHT31;52947;50.842;6.084;2024-01-15T04:32:13;2.81;93.27
66144;SHT31;52947;50.842;6.084;2024-01-15T04:34:41;2.97;92.36
66144;SHT31;52947;50.842;6.084;2024-01-15T04:37:10;3.29;92.54
66144;SHT31;52947;50.842;6.084;2024-01-15T04:39:39;3.58;92.47
66144;SHT31;52947;50.842;6.084;2024-01-15T04:42:07;2.81;92.58
66144;SHT31;52947;50.842;6.084;2024-01-15T04:44:35;3.07;93.15
66144;SHT31;52947;50.842;6.084;2024-01-15T04:47:03;2.76;92.79
66144;SHT31;52947;50.842;6.084;2024-01-15T04:49:31;3.21;95.24
66144;SHT31;52947;50.842;6.084;2024-01-15T04:51:59;3.11;92.58
66144;SHT31;52947;50.842;6.084;2024-01-15T04:54:29;3.05;92.82
66144;SHT31;52947;50.842;6.084;2024-01-15T04:56:57;3.01;92.08
66144;SHT31;52947;50.842;6.084;2024-01-15T04:59:25;3.26;92.66
66144;SHT31;52947;50.842;6.084;2024-01-15T05:01:54;3.24;92.04
66144;SHT31;52947;50.842;6.084;2024-01-15T05:04:22;2.80;92.47
66144;SHT31;52947;50.842;6.084;2024-01-15T05:06:51;2.36;92.77
66144;SHT31;52947;50.842;6.084;2024-01-15T05:09:19;2.49;93.04
66144;SHT31;52947;50.842;6.084;2024-01-15T05:11:48;2.79;92.39
66144;SHT31;52947;50.842;6.084;2024-01-15T05:14:16;2.84;93.64
66144;SHT31;52947;50.842;6.084;2024-01-15T05:16:46;3.04;93.85
66144;SHT31;52947;50.842;6.084;2024-01-15T05:19:15;2.94;92.15
66144;SHT31;52947;50.842;6.084;2024-01-15T05:21:43;3.15;93.00
66144;SHT31;52947;50.842;6.084;2024-01-15T05:24:11;3.79;91.78
66144;SHT31;52947;50.842;6.084;2024-01-15T05:26:39;3.75;90.15
66144;SHT31;52947;50.842;6.084;2024-01-15T05:29:09;3.89;90.17
66144;SHT31;52947;50.842;6.084;2024-01-15T05:31:37;4.06;89.92
66144;SHT31;52947;50.842;6.084;2024-01-15T05:34:05;3.70;88.50
66144;SHT31;52947;50.842;6.084;2024-01-15T05:36:33;3.09;90.16
66144;SHT31;52947;50.842;6.084;2024-01-15T05:39:01;3.19;90.51
66144;SHT31;52947;50.842;6.084;2024-01-15T05:41:29;3.72;91.43
66144;SHT31;52947;50.842;6.084;2024-01-15T05:43:57;2.95;90.65
66144;SHT31;52947;50.842;6.084;2024-01-15T05:46:27;2.76;91.28
66144;SHT31;52947;50.842;6.084;2024-01-15T05:48:54;2.87;92.81
66144;SHT31;52947;50.842;6.084;2024-01-15T05:51:23;2.95;92.29
66144;SHT31;52947;50.842;6.084;2024-01-15T05:53:51;2.58;91.79
66144;SHT31;52947;50.842;6.084;2024-01-15T05:56:19;2.65;93.06
66144;SHT31;52947;50.842;6.084;2024-01-15T05:58:47;3.34;92.25
66144;SHT31;52947;50.842;6.084;2024-01-15T06:01:15;3.40;92.04
66144;SHT31;52947;50.842;6.084;2024-01-15T06:03:44;3.43;89.73
66144;SHT31;52947;50.842;6.084;2024-01-15T06:06:13;3.46;92.13
66144;SHT31;52947;50.842;6.084;2024-01-15T06:08:41;2.95;92.07
66144;SHT31;52947;50.842;6.084;2024-01-15T06:11:09;2.74;91.89
66144;SHT31;52947;50.842;6.084;2024-01-15T06:13:37;2.94;92.86
66144;SHT31;52947;50.842;6.084;2024-01-15T06:16:13;3.26;92.04
66144;SHT31;52947;50.842;6.084;2024-01-15T06:18:41;2.85;91.23
66144;SHT31;52947;50.842;6.084;2024-01-15T06:21:10;3.56;91.17
66144;SHT31;52947;50.842;6.084;2024-01-15T06:23:39;2.98;90.23
66144;SHT31;52947;50.842;6.084;2024-01-15T06:26:08;2.50;91.80
66144;SHT31;52947;50.842;6.084;2024-01-15T06:28:36;2.76;91.37
66144;SHT31;52947;50.842;6.084;2024-01-15T06:31:04;2.39;91.73
66144;SHT31;52947;50.842;6.084;2024-01-15T06:33:32;2.42;92.91
66144;SHT31;52947;50.842;6.084;2024-01-15T06:36:00;2.39;93.26
66144;SHT31;52947;50.842;6.084;2024-01-15T06:38:30;2.34;92.58
66144;SHT31;52947;50.842;6.084;2024-01-15T06:40:58;2.19;93.25
66144;SHT31;52947;50.842;6.084;2024-01-15T06:43:26;2.22;94.24
66144;SHT31;52947;50.842;6.084;2024-01-15T06:45:53;2.15;94.54
66144;SHT31;52947;50.842;6.084;2024-01-15T06:48:22;2.05;94.07
66144;SHT31;52947;50.842;6.084;2024-01-15T06:50:50;2.54;94.21
66144;SHT31;52947;50.842;6.084;2024-01-15T06:53:18;2.50;93.55
66144;SHT31;52947;50.842;6.084;2024-01-15T06:55:48;2.19;93.11
66144;SHT31;52947;50.842;6.084;2024-01-15T06:58:18;1.95;94.38
66144;SHT31;52947;50.842;6.084;2024-01-15T07:00:46;2.02;94.35
66144;SHT31;52947;50.842;6.084;2024-01-15T07:03:14;2.09;95.01
66144;SHT31;52947;50.842;6.084;2024-01-15T07:05:42;2.12;93.71
66144;SHT31;52947;50.842;6.084;2024-01-15T07:08:10;3.12;92.58
66144;SHT31;52947;50.842;6.084;2024-01-15T07:10:38;2.97;90.89
66144;SHT31;52947;50.842;6.084;2024-01-15T07:13:08;2.67;92.76
66144;SHT31;52947;50.842;6.084;2024-01-15T07:15:36;2.74;91.11
66144;SHT31;52947;50.842;6.084;2024-01-15T07:18:05;2.42;91.99
66144;SHT31;52947;50.842;6.084;2024-01-15T07:20:33;1.99;93.03
66144;SHT31;52947;50.842;6.084;2024-01-15T07:23:01;2.15;93.35
66144;SHT31;52947;50.842;6.084;2024-01-15T07:25:29;2.12;93.57
66144;SHT31;52947;50.842;6.084;2024-01-15T07:27:57;1.94;93.67
66144;SHT31;52947;50.842;6.084;2024-01-15T07:30:26;2.23;93.82
66144;SHT31;52947;50.842;6.084;2024-01-15T07:32:54;2.25;92.77
66144;SHT31;52947;50.842;6.084;2024-01-15T07:35:22;2.67;92.86
66144;SHT31;52947;50.842;6.084;2024-01-15T07:37:50;3.16;91.33
66144;SHT31;52947;50.842;6.084;2024-01-15T07:40:18;3.26;90.98
66144;SHT31;52947;50.842;6.084;2024-01-15T07:42:46;2.98;89.83
66144;SHT31;52947;50.842;6.084;2024-01-15T07:45:15;2.64;90.72
66144;SHT31;52947;50.842;6.084;2024-01-15T07:47:44;2.57;91.17
66144;SHT31;52947;50.842;6.084;2024-01-15T07:50:12;2.71;92.13
66144;SHT31;52947;50.842;6.084;2024-01-15T07:52:40;3.09;90.99
66144;SHT31;52947;50.842;6.084;2024-01-15T07:55:08;3.29;91.64
66144;SHT31;52947;50.842;6.084;2024-01-15T07:57:37;3.03;90.10
66144;SHT31;52947;50.842;6.084;2024-01-15T08:00:06;3.25;90.31
66144;SHT31;52947;50.842;6.084;2024-01-15T08:02:36;3.12;90.44
66144;SHT31;52947;50.842;6.084;2024-01-15T08:05:06;3.12;91.23
66144;SHT31;52947;50.842;6.084;2024-01-15T08:07:34;3.05;91.45
66144;SHT31;52947;50.842;6.084;2024-01-15T08:10:02;3.32;90.47
66144;SHT31;52947;50.842;6.084;2024-01-15T08:12:30;3.38;90.25
66144;SHT31;52947;50.842;6.084;2024-01-15T08:14:58;3.14;91.25
66144;SHT31;52947;50.842;6.084;2024-01-15T08:17:26;2.98;90.98
66144;SHT31;52947;50.842;6.084;2024-01-15T08:19:55;3.15;90.28
66144;SHT31;52947;50.842;6.084;2024-01-15T08:22:25;2.81;90.41
66144;SHT31;52947;50.842;6.084;2024-01-15T08:24:55;3.03;91.02
66144;SHT31;52947;50.842;6.084;2024-01-15T08:27:23;3.43;90.71
66144;SHT31;52947;50.842;6.084;2024-01-15T08:29:51;3.67;89.96
66144;SHT31;52947;50.842;6.084;2024-01-15T08:32:20;3.80;89.57
66144;SHT31;52947;50.842;6.084;2024-01-15T08:34:47;3.66;89.04
66144;SHT31;52947;50.842;6.084;2024-01-15T08:37:19;3.96;89.10
66144;SHT31;52947;50.842;6.084;2024-01-15T08:39:48;3.98;89.06
66144;SHT31;52947;50.842;6.084;2024-01-15T08:42:18;4.24;89.12
66144;SHT31;52947;50.842;6.084;2024-01-15T08:44:46;3.80;90.03
66144;SHT31;52947;50.842;6.084;2024-01-15T08:47:14;4.11;88.71
66144;SHT31;52947;50.842;6.084;2024-01-15T08:49:42;3.91;88.99
66144;SHT31;52947;50.842;6.084;2024-01-15T08:52:11;3.40;89.35
66144;SHT31;52947;50.842;6.084;2024-01-15T08:54:40;4.13;89.53
66144;SHT31;52947;50.842;6.084;2024-01-15T08:57:10;4.35;89.95
66144;SHT31;52947;50.842;6.084;2024-01-15T08:59:38;4.06;89.24
66144;SHT31;52947;50.842;6.084;2024-01-15T09:02:08;4.03;88.58
66144;SHT31;52947;50.842;6.084;2024-01-15T09:04:36;3.12;88.65
66144;SHT31;52947;50.842;6.084;2024-01-15T09:07:04;2.42;90.87
66144;SHT31;52947;50.842;6.084;2024-01-15T09:09:32;1.89;92.49
66144;SHT31;52947;50.842;6.084;2024-01-15T09:12:01;1.70;93.77
66144;SHT31;52947;50.842;6.084;2024-01-15T09:14:30;1.40;94.89
66144;SHT31;52947;50.842;6.084;2024-01-15T09:17:04;1.26;95.89
66144;SHT31;52947;50.842;6.084;2024-01-15T09:19:32;1.20;96.19
66144;SHT31;52947;50.842;6.084;2024-01-15T09:22:00;1.12;96.65
66144;SHT31;52947;50.842;6.084;2024-01-15T09:24:28;1.04;96.86
66144;SHT31;52947;50.842;6.084;2024-01-15T09:26:56;0.96;97.10
66144;SHT31;52947;50.842;6.084;2024-01-15T09:29:24;0.89;97.52
66144;SHT31;52947;50.842;6.084;2024-01-15T09:31:53;0.85;97.84
66144;SHT31;52947;50.842;6.084;2024-01-15T09:34:21;0.83;98.12
66144;SHT31;52947;50.842;6.084;2024-01-15T09:36:50;0.90;97.74
66144;SHT31;52947;50.842;6.084;2024-01-15T09:39:18;0.97;97.81
66144;SHT31;52947;50.842;6.084;2024-01-15T09:41:47;0.95;97.68
66144;SHT31;52947;50.842;6.084;2024-01-15T09:44:17;0.96;97.57
66144;SHT31;52947;50.842;6.084;2024-01-15T09:46:45;0.88;97.58
66144;SHT31;52947;50.842;6.084;2024-01-15T09:49:18;0.76;97.84
66144;SHT31;52947;50.842;6.084;2024-01-15T09:51:47;0.79;97.92
66144;SHT31;52947;50.842;6.084;2024-01-15T09:54:28;0.73;98.12
66144;SHT31;52947;50.842;6.084;2024-01-15T09:56:56;0.72;98.24
66144;SHT31;52947;50.842;6.084;2024-01-15T09:59:25;0.66;98.09
66144;SHT31;52947;50.842;6.084;2024-01-15T10:01:55;0.66;98.33
66144;SHT31;52947;50.842;6.084;2024-01-15T10:04:26;0.69;98.46
66144;SHT31;52947;50.842;6.084;2024-01-15T10:06:55;0.65;98.42
66144;SHT31;52947;50.842;6.084;2024-01-15T10:09:24;0.64;98.35
66144;SHT31;52947;50.842;6.084;2024-01-15T10:11:53;0.76;98.25
66144;SHT31;52947;50.842;6.084;2024-01-15T10:14:21;0.78;97.68
66144;SHT31;52947;50.842;6.084;2024-01-15T10:16:50;0.88;97.91
66144;SHT31;52947;50.842;6.084;2024-01-15T10:19:18;1.03;97.55
66144;SHT31;52947;50.842;6.084;2024-01-15T10:21:48;1.16;97.05
66144;SHT31;52947;50.842;6.084;2024-01-15T10:24:17;1.26;96.18
66144;SHT31;52947;50.842;6.084;2024-01-15T10:26:45;1.23;96.07
66144;SHT31;52947;50.842;6.084;2024-01-15T10:29:14;1.26;96.48
66144;SHT31;52947;50.842;6.084;2024-01-15T10:31:42;1.33;96.18
66144;SHT31;52947;50.842;6.084;2024-01-15T10:34:13;1.39;96.02
66144;SHT31;52947;50.842;6.084;2024-01-15T10:36:45;1.39;95.83
66144;SHT31;52947;50.842;6.084;2024-01-15T10:39:16;1.47;95.36
66144;SHT31;52947;50.842;6.084;2024-01-15T10:41:45;1.60;95.51
66144;SHT31;52947;50.842;6.084;2024-01-15T10:44:13;1.68;94.62
66144;SHT31;52947;50.842;6.084;2024-01-15T10:46:41;1.85;94.47
66144;SHT31;52947;50.842;6.084;2024-01-15T10:49:09;1.82;93.90
66144;SHT31;52947;50.842;6.084;2024-01-15T10:51:38;1.95;93.78
66144;SHT31;52947;50.842;6.084;2024-01-15T10:54:09;1.97;93.54
66144;SHT31;52947;50.842;6.084;2024-01-15T10:56:40;1.99;93.45
66144;SHT31;52947;50.842;6.084;2024-01-15T10:59:10;2.02;93.39
66144;SHT31;52947;50.842;6.084;2024-01-15T11:01:39;2.03;93.31
66144;SHT31;52947;50.842;6.084;2024-01-15T11:04:10;1.92;92.90
66144;SHT31;52947;50.842;6.084;2024-01-15T11:06:42;1.89;93.15
66144;SHT31;52947;50.842;6.084;2024-01-15T11:09:11;2.05;93.08
66144;SHT31;52947;50.842;6.084;2024-01-15T11:11:42;2.16;92.45
66144;SHT31;52947;50.842;6.084;2024-01-15T11:14:11;2.03;92.59
66144;SHT31;52947;50.842;6.084;2024-01-15T11:16:59;1.77;93.07
66144;SHT31;52947;50.842;6.084;2024-01-15T11:19:35;1.60;93.40
66144;SHT31;52947;50.842;6.084;2024-01-15T11:22:04;1.60;93.53
66144;SHT31;52947;50.842;6.084;2024-01-15T11:24:34;1.86;93.08
66144;SHT31;52947;50.842;6.084;2024-01-15T11:27:05;2.57;91.62
66144;SHT31;52947;50.842;6.084;2024-01-15T11:29:34;2.61;90.71
66144;SHT31;52947;50.842;6.084;2024-01-15T11:32:04;2.70;90.27
66144;SHT31;52947;50.842;6.084;2024-01-15T11:34:54;3.25;88.75
66144;SHT31;52947;50.842;6.084;2024-01-15T11:37:26;3.38;88.05
66144;SHT31;52947;50.842;6.084;2024-01-15T11:39:56;3.48;88.49
66144;SHT31;52947;50.842;6.084;2024-01-15T11:42:30;4.65;83.69
66144;SHT31;52947;50.842;6.084;2024-01-15T11:44:58;4.72;82.76
66144;SHT31;52947;50.842;6.084;2024-01-15T11:50:30;5.79;80.46
66144;SHT31;52947;50.842;6.084;2024-01-15T11:53:00;6.06;80.07
66144;SHT31;52947;50.842;6.084;2024-01-15T11:55:34;6.57;78.38
66144;SHT31;52947;50.842;6.084;2024-01-15T11:58:08;7.59;76.67
66144;SHT31;52947;50.842;6.084;2024-01-15T12:00:39;8.23;74.26
66144;SHT31;52947;50.842;6.084;2024-01-15T12:03:09;5.98;77.78
66144;SHT31;52947;50.842;6.084;2024-01-15T12:05:37;5.12;81.32
66144;SHT31;52947;50.842;6.084;2024-01-15T12:08:06;5.03;81.22
66144;SHT31;52947;50.842;6.084;2024-01-15T12:10:38;4.68;82.68
66144;SHT31;52947;50.842;6.084;2024-01-15T12:13:11;4.24;83.61
66144;SHT31;52947;50.842;6.084;2024-01-15T12:15:41;3.62;85.58
66144;SHT31;52947;50.842;6.084;2024-01-15T12:18:12;3.21;86.57
66144;SHT31;52947;50.842;6.084;2024-01-15T12:20:42;2.84;87.38
66144;SHT31;52947;50.842;6.084;2024-01-15T12:23:10;2.53;88.96
66144;SHT31;52947;50.842;6.084;2024-01-15T12:25:39;2.33;89.70
66144;SHT31;52947;50.842;6.084;2024-01-15T12:28:07;2.21;90.90
66144;SHT31;52947;50.842;6.084;2024-01-15T12:30:36;2.15;91.10
66144;SHT31;52947;50.842;6.084;2024-01-15T12:33:05;2.64;91.18
66144;SHT31;52947;50.842;6.084;2024-01-15T12:35:35;3.14;89.23
66144;SHT31;52947;50.842;6.084;2024-01-15T12:38:04;2.93;89.70
66144;SHT31;52947;50.842;6.084;2024-01-15T12:40:33;2.47;90.85
66144;SHT31;52947;50.842;6.084;2024-01-15T12:43:05;2.13;92.23
66144;SHT31;52947;50.842;6.084;2024-01-15T12:45:34;1.94;93.06
66144;SHT31;52947;50.842;6.084;2024-01-15T12:48:06;1.83;93.89
66144;SHT31;52947;50.842;6.084;2024-01-15T12:50:34;1.72;94.53
66144;SHT31;52947;50.842;6.084;2024-01-15T12:53:06;1.60;94.87
66144;SHT31;52947;50.842;6.084;2024-01-15T12:55:34;1.43;96.04
66144;SHT31;52947;50.842;6.084;2024-01-15T12:58:03;1.40;96.13
66144;SHT31;52947;50.842;6.084;2024-01-15T13:00:31;1.48;96.34
66144;SHT31;52947;50.842;6.084;2024-01-15T13:02:59;1.39;96.41
66144;SHT31;52947;50.842;6.084;2024-01-15T13:05:31;1.30;96.64
66144;SHT31;52947;50.842;6.084;2024-01-15T13:08:01;1.40;96.92
66144;SHT31;52947;50.842;6.084;2024-01-15T13:10:30;1.48;96.37
66144;SHT31;52947;50.842;6.084;2024-01-15T13:12:58;1.46;96.27
66144;SHT31;52947;50.842;6.084;2024-01-15T13:15:26;1.47;96.18
66144;SHT31;52947;50.842;6.084;2024-01-15T13:17:54;1.54;96.11
66144;SHT31;52947;50.842;6.084;2024-01-15T13:20:23;1.61;95.81
66144;SHT31;52947;50.842;6.084;2024-01-15T13:22:52;1.70;95.16
66144;SHT31;52947;50.842;6.084;2024-01-15T13:25:20;1.70;95.13
66144;SHT31;52947;50.842;6.084;2024-01-15T13:27:48;1.64;95.11
66144;SHT31;52947;50.842;6.084;2024-01-15T13:30:16;1.54;95.05
66144;SHT31;52947;50.842;6.084;2024-01-15T13:32:44;1.47;95.29
66144;SHT31;52947;50.842;6.084;2024-01-15T13:35:14;1.43;95.42
66144;SHT31;52947;50.842;6.084;2024-01-15T13:37:42;1.44;95.31
66144;SHT31;52947;50.842;6.084;2024-01-15T13:40:11;1.39;95.24
66144;SHT31;52947;50.842;6.084;2024-01-15T13:42:45;1.39;95.64
66144;SHT31;52947;50.842;6.084;2024-01-15T13:45:14;1.39;95.63
66144;SHT31;52947;50.842;6.084;2024-01-15T13:47:42;1.36;95.87
66144;SHT31;52947;50.842;6.084;2024-01-15T13:50:11;1.37;95.93
66144;SHT31;52947;50.842;6.084;2024-01-15T13:52:40;1.33;96.02
66144;SHT31;52947;50.842;6.084;2024-01-15T13:55:08;1.40;96.29
66144;SHT31;52947;50.842;6.084;2024-01-15T13:57:38;1.29;96.08
66144;SHT31;52947;50.842;6.084;2024-01-15T14:00:07;1.29;96.28
66144;SHT31;52947;50.842;6.084;2024-01-15T14:02:38;1.24;96.35
66144;SHT31;52947;50.842;6.084;2024-01-15T14:05:06;1.24;96.44
66144;SHT31;52947;50.842;6.084;2024-01-15T14:07:35;1.29;96.42
66144;SHT31;52947;50.842;6.084;2024-01-15T14:10:04;1.33;96.58
66144;SHT31;52947;50.842;6.084;2024-01-15T14:12:32;1.39;96.16
66144;SHT31;52947;50.842;6.084;2024-01-15T14:15:02;1.41;96.23
66144;SHT31;52947;50.842;6.084;2024-01-15T14:17:32;1.44;96.09
66144;SHT31;52947;50.842;6.084;2024-01-15T14:20:00;1.50;95.76
66144;SHT31;52947;50.842;6.084;2024-01-15T14:22:32;1.57;95.80
66144;SHT31;52947;50.842;6.084;2024-01-15T14:25:00;1.47;95.76
66144;SHT31;52947;50.842;6.084;2024-01-15T14:27:28;1.48;95.86
66144;SHT31;52947;50.842;6.084;2024-01-15T14:29:56;1.47;95.72
66144;SHT31;52947;50.842;6.084;2024-01-15T14:32:25;1.44;95.66
66144;SHT31;52947;50.842;6.084;2024-01-15T14:34:54;1.46;95.80
66144;SHT31;52947;50.842;6.084;2024-01-15T14:37:23;1.37;95.64
66144;SHT31;52947;50.842;6.084;2024-01-15T14:39:51;1.39;95.75
66144;SHT31;52947;50.842;6.084;2024-01-15T14:42:20;1.33;95.86
66144;SHT31;52947;50.842;6.084;2024-01-15T14:44:48;1.27;95.86
66144;SHT31;52947;50.842;6.084;2024-01-15T14:47:15;1.30;95.67
66144;SHT31;52947;50.842;6.084;2024-01-15T14:49:45;1.34;95.71
66144;SHT31;52947;50.842;6.084;2024-01-15T14:52:13;1.36;95.63
66144;SHT31;52947;50.842;6.084;2024-01-15T14:54:41;1.37;95.76
66144;SHT31;52947;50.842;6.084;2024-01-15T14:57:09;1.41;95.74
66144;SHT31;52947;50.842;6.084;2024-01-15T14:59:37;1.39;95.57
66144;SHT31;52947;50.842;6.084;2024-01-15T15:02:05;1.40;95.62
66144;SHT31;52947;50.842;6.084;2024-01-15T15:04:34;1.34;95.63
66144;SHT31;52947;50.842;6.084;2024-01-15T15:07:04;1.37;95.94
66144;SHT31;52947;50.842;6.084;2024-01-15T15:09:33;1.36;95.66
66144;SHT31;52947;50.842;6.084;2024-01-15T15:12:01;1.30;95.94
66144;SHT31;52947;50.842;6.084;2024-01-15T15:14:32;1.23;96.27
66144;SHT31;52947;50.842;6.084;2024-01-15T15:17:17;1.26;96.03
66144;SHT31;52947;50.842;6.084;2024-01-15T15:19:45;1.17;96.06
66144;SHT31;52947;50.842;6.084;2024-01-15T15:22:14;1.17;96.10
66144;SHT31;52947;50.842;6.084;2024-01-15T15:24:42;1.12;96.01
66144;SHT31;52947;50.842;6.084;2024-01-15T15:27:11;1.07;96.18
66144;SHT31;52947;50.842;6.084;2024-01-15T15:29:39;1.03;96.40
66144;SHT31;52947;50.842;6.084;2024-01-15T15:32:07;1.04;96.30
66144;SHT31;52947;50.842;6.084;2024-01-15T15:34:35;1.01;96.13
66144;SHT31;52947;50.842;6.084;2024-01-15T15:37:04;1.00;96.21
66144;SHT31;52947;50.842;6.084;2024-01-15T15:39:34;0.93;96.32
66144;SHT31;52947;50.842;6.084;2024-01-15T15:42:02;0.92;96.13
66144;SHT31;52947;50.842;6.084;2024-01-15T15:44:31;0.93;96.38
66144;SHT31;52947;50.842;6.084;2024-01-15T15:46:59;0.93;96.22
66144;SHT31;52947;50.842;6.084;2024-01-15T15:49:27;0.90;96.54
66144;SHT31;52947;50.842;6.084;2024-01-15T15:51:55;0.96;96.37
66144;SHT31;52947;50.842;6.084;2024-01-15T15:54:23;0.95;96.31
66144;SHT31;52947;50.842;6.084;2024-01-15T15:56:53;0.96;96.26
66144;SHT31;52947;50.842;6.084;2024-01-15T15:59:23;0.99;96.28